Green Mountain — V7ZQ7 — position and weather

sailwx.info

Track history (hours):
 
Tides and Currents Weather Stations Pressure Air Temp Water Temp Dewpoint Dewpoint Depression Visibility Wind Speed Wind Dir Waves Ship Positions

Green Mountain

Last reported at 2018-Jun-18 07:07 UTC. Time now 2018-Jun-24 05:27 UTC.
Position N 28°14' W 016°08'.

Length 200 m; draft 11.5 m.

Type: Ship (hazmat cat A). MMSI: 538090454.

Date/timePositionNaut miles runAvg speedWind from/ knotsBaromVisibWave heightAir tempDewpointWater temp
2018-Jun-18 07:07N 28°14' W 016°08'213.6
2018-Jun-18 06:59N 28°15' W 016°06'713.7
2018-Jun-18 06:30N 28°21' W 016°02'612.8
2018-Jun-18 06:00N 28°25' W 015°57'612.7
2018-Jun-18 05:30N 28°30' W 015°52'612.8
2018-Jun-18 05:00N 28°35' W 015°48'613.0
2018-Jun-18 04:30N 28°40' W 015°43'713.4
2018-Jun-18 04:00N 28°47' W 015°40'713.6
2018-Jun-18 03:29N 28°53' W 015°37'713.6
2018-Jun-18 02:58N 28°60' W 015°34'2713.6
2018-Jun-18 01:01N 29°24' W 015°23'613.7
2018-Jun-18 00:33N 29°30' W 015°20'213.7
2018-Jun-18 00:23N 29°32' W 015°20'813.5
2018-Jun-17 23:46N 29°40' W 015°16'513.5
2018-Jun-17 23:26N 29°44' W 015°14'613.4
2018-Jun-17 23:00N 29°50' W 015°12'713.5
2018-Jun-17 22:29N 29°56' W 015°09'813.3
2018-Jun-17 21:55N 30°03' W 015°05'713.3
2018-Jun-17 21:24N 30°09' W 015°02'613.4
2018-Jun-17 20:56N 30°15' W 014°60'613.7
2018-Jun-17 20:30N 30°21' W 014°57'813.7
2018-Jun-17 19:53N 30°29' W 014°54'813.6
2018-Jun-17 19:19N 30°36' W 014°50'37413.4
2018-Jun-16 15:24N 36°23' W 012°04'4713.6
2018-Jun-16 11:57N 37°04' W 011°37'2313.8
2018-Jun-16 10:15N 37°25' W 011°23'413.7
2018-Jun-16 09:59N 37°28' W 011°20'713.7
2018-Jun-16 09:30N 37°34' W 011°16'713.9
2018-Jun-16 09:00N 37°40' W 011°12'713.6
2018-Jun-16 08:30N 37°46' W 011°08'510.6
2018-Jun-16 08:00N 37°51' W 011°05'1312.1
2018-Jun-16 06:57N 38°02' W 010°58'614.6
2018-Jun-16 06:30N 38°07' W 010°54'714.3
2018-Jun-16 06:01N 38°14' W 010°49'714.3
2018-Jun-16 05:30N 38°20' W 010°44'714.2
2018-Jun-16 05:00N 38°26' W 010°40'714.3
2018-Jun-16 04:31N 38°32' W 010°35'714.2
2018-Jun-16 03:59N 38°39' W 010°31'714.2
2018-Jun-16 03:28N 38°45' W 010°27'814.1
2018-Jun-16 02:54N 38°52' W 010°22'513.5
2018-Jun-16 02:30N 38°57' W 010°19'713.9
2018-Jun-16 02:00N 39°03' W 010°14'714.3
2018-Jun-16 01:30N 39°09' W 010°10'714.5
2018-Jun-16 01:00N 39°16' W 010°06'814.4
2018-Jun-16 00:26N 39°23' W 010°01'714.8
2018-Jun-15 23:58N 39°29' W 009°57'714.6
2018-Jun-15 23:30N 39°35' W 009°53'714.4
2018-Jun-15 23:00N 39°41' W 009°48'814.3
2018-Jun-15 22:27N 39°48' W 009°43'714.4
2018-Jun-15 22:00N 39°54' W 009°39'714.2
2018-Jun-15 21:30N 39°60' W 009°34'714.1
2018-Jun-15 21:00N 40°05' W 009°28'814.4
2018-Jun-15 20:29N 40°11' W 009°22'1014.4
2018-Jun-15 19:49N 40°19' W 009°15'5314.2
2018-Jun-15 16:03N 41°08' W 008°45'111.2
2018-Jun-15 15:59N 41°08' W 008°44'3 7.2
2018-Jun-15 15:30N 41°11' W 008°42'1 0.6
2018-Jun-15 14:30N 41°12' W 008°41'0 0.0
2018-Jun-15 13:57N 41°12' W 008°41'0 0.0
2018-Jun-15 13:30N 41°12' W 008°41'0 0.0
2018-Jun-15 12:51N 41°12' W 008°41'0 0.0
2018-Jun-15 12:27N 41°12' W 008°41'0 0.0
2018-Jun-15 12:00N 41°12' W 008°41'0 0.0
2018-Jun-15 11:30N 41°12' W 008°41'0 0.0
2018-Jun-15 09:27N 41°12' W 008°41'0 0.0
2018-Jun-15 08:57N 41°12' W 008°41'0 0.0
2018-Jun-15 08:30N 41°12' W 008°41'0 0.0
2018-Jun-15 08:00N 41°12' W 008°41'0 0.0
2018-Jun-15 07:21N 41°12' W 008°41'0 0.0
2018-Jun-15 07:00N 41°12' W 008°41'0 0.0
2018-Jun-15 06:24N 41°12' W 008°41'0 0.0
2018-Jun-15 05:57N 41°12' W 008°41'0 0.0
2018-Jun-15 05:24N 41°12' W 008°41'0 0.0
2018-Jun-15 04:57N 41°12' W 008°41'0 0.0
2018-Jun-15 04:24N 41°12' W 008°41'0 0.0
2018-Jun-15 03:57N 41°12' W 008°41'0 0.0
2018-Jun-15 03:30N 41°12' W 008°41'0 0.0
2018-Jun-15 02:45N 41°12' W 008°41'0 0.0
2018-Jun-15 02:27N 41°12' W 008°41'0 0.0
2018-Jun-15 01:42N 41°12' W 008°41'0 0.0
2018-Jun-15 01:30N 41°12' W 008°41'0 0.0
2018-Jun-15 00:54N 41°12' W 008°41'0 0.0
2018-Jun-15 00:21N 41°12' W 008°41'0 0.1
2018-Jun-15 00:00N 41°12' W 008°41'0 0.1
2018-Jun-14 23:30N 41°12' W 008°41'0 0.0
2018-Jun-14 22:57N 41°12' W 008°41'0 0.0
2018-Jun-14 22:30N 41°12' W 008°41'0 0.0
2018-Jun-14 22:00N 41°12' W 008°41'0 0.0
2018-Jun-14 21:27N 41°12' W 008°41'0 0.0
2018-Jun-14 21:00N 41°12' W 008°41'0 0.0
2018-Jun-14 20:30N 41°12' W 008°41'0 0.0
2018-Jun-14 19:48N 41°12' W 008°41'0 0.0
2018-Jun-14 19:24N 41°12' W 008°41'0 0.0
2018-Jun-14 18:48N 41°12' W 008°41'0 0.0
2018-Jun-14 18:30N 41°12' W 008°41'0 0.0
2018-Jun-14 18:00N 41°12' W 008°41'0 0.7
2018-Jun-14 17:30N 41°11' W 008°42'2 5.0
2018-Jun-14 17:00N 41°09' W 008°44'1 1.9
2018-Jun-14 16:30N 41°09' W 008°45'1 2.6
2018-Jun-14 15:59N 41°08' W 008°46'2 0.8
2018-Jun-14 13:49N 41°08' W 008°48'1 1.5
2018-Jun-14 13:29N 41°08' W 008°48'1 1.3
2018-Jun-14 12:35N 41°09' W 008°49'0 1.3
2018-Jun-14 12:30N 41°10' W 008°49'1 1.1
2018-Jun-14 12:00N 41°10' W 008°49'1 1.8
2018-Jun-14 11:30N 41°09' W 008°50'213 7.3
2018-Jun-13 06:07N 43°48' W 005°37'615.4
2018-Jun-13 05:45N 43°47' W 005°29'415.3
2018-Jun-13 05:29N 43°47' W 005°23'715.2
2018-Jun-13 05:00N 43°47' W 005°13'815.1
2018-Jun-13 04:29N 43°46' W 005°02'815.3
2018-Jun-13 03:59N 43°46' W 004°51'4915.1
2018-Jun-13 00:44N 43°42' W 003°44'414.8
2018-Jun-13 00:29N 43°41' W 003°39'713.8
2018-Jun-13 00:00N 43°39' W 003°30'713.9
2018-Jun-12 23:30N 43°35' W 003°23'713.6
2018-Jun-12 23:00N 43°31' W 003°15'612.6
2018-Jun-12 22:30N 43°27' W 003°09'5 9.8
2018-Jun-12 22:00N 43°23' W 003°05'2 3.9
2018-Jun-12 21:30N 43°21' W 003°03'0 0.4
2018-Jun-12 20:54N 43°21' W 003°03'0 0.0
2018-Jun-12 18:12N 43°21' W 003°03'0 0.0
2018-Jun-12 17:42N 43°21' W 003°03'0 0.0
2018-Jun-12 17:30N 43°21' W 003°03'0 0.0
2018-Jun-12 16:36N 43°21' W 003°03'0 0.0
2018-Jun-12 16:30N 43°21' W 003°03'0 0.0
2018-Jun-12 15:42N 43°21' W 003°03'0 0.0
2018-Jun-12 15:24N 43°21' W 003°03'0 0.0
2018-Jun-12 15:00N 43°21' W 003°03'0 0.0
2018-Jun-12 14:18N 43°21' W 003°03'0 0.0
2018-Jun-12 11:18N 43°21' W 003°03'0 0.0
2018-Jun-12 09:30N 43°21' W 003°03'0 0.0
2018-Jun-12 08:48N 43°21' W 003°03'0 0.0
2018-Jun-12 08:24N 43°21' W 003°03'0 0.0
2018-Jun-12 07:48N 43°21' W 003°03'0 0.0
2018-Jun-12 07:30N 43°21' W 003°03'0 0.0
2018-Jun-12 07:00N 43°21' W 003°03'0 0.0
2018-Jun-12 05:30N 43°21' W 003°03'0 0.0
2018-Jun-12 04:57N 43°21' W 003°03'0 1.0
2018-Jun-12 04:31N 43°22' W 003°02'4 8.2
2018-Jun-12 04:00N 43°25' W 003°06'4 7.3
2018-Jun-12 03:30N 43°28' W 003°08'510.1
2018-Jun-12 03:00N 43°33' W 003°10'511.0
2018-Jun-12 02:30N 43°38' W 003°13'611.9
2018-Jun-12 02:00N 43°44' W 003°16'612.1
2018-Jun-12 01:30N 43°49' W 003°19'29013.8
2018-Jun-11 04:33N 48°19' W 005°50'13312.9
2018-Jun-10 18:16N 49°48' W 003°19'414.1
2018-Jun-10 18:00N 49°50' W 003°15'713.8
2018-Jun-10 17:28N 49°54' W 003°05'613.5
2018-Jun-10 17:00N 49°57' W 002°56'613.0
2018-Jun-10 16:30N 49°59' W 002°47'3313.6
2018-Jun-10 14:06N 50°08' W 001°58'915.2
2018-Jun-10 13:30N 50°11' W 001°44'815.9
2018-Jun-10 13:00N 50°13' W 001°32'916.6
2018-Jun-10 12:28N 50°16' W 001°19'817.1
2018-Jun-10 12:00N 50°18' W 001°07'917.6
2018-Jun-10 11:30N 50°20' W 000°54'917.3
2018-Jun-10 11:00N 50°23' W 000°41'816.8
2018-Jun-10 10:30N 50°25' W 000°28'916.3
2018-Jun-10 09:59N 50°27' W 000°15'2215.4
2018-Jun-10 08:34N 50°34' E 000°17'114.9
2018-Jun-10 08:31N 50°34' E 000°18'714.7
2018-Jun-10 08:00N 50°37' E 000°29'714.3
2018-Jun-10 07:30N 50°40' E 000°39'714.2
2018-Jun-10 07:01N 50°44' E 000°48'714.1
2018-Jun-10 06:29N 50°49' E 000°58'2015.0
2018-Jun-10 05:08N 51°02' E 001°22'316.2
2018-Jun-10 04:58N 51°03' E 001°26'817.4
2018-Jun-10 04:31N 51°09' E 001°35'816.9
2018-Jun-10 04:01N 51°14' E 001°45'816.5
2018-Jun-10 03:30N 51°21' E 001°54'714.0
2018-Jun-10 03:00N 51°25' E 002°03'714.8
2018-Jun-10 02:31N 51°22' E 002°13'714.6
2018-Jun-10 02:00N 51°22' E 002°25'814.8
2018-Jun-10 01:30N 51°23' E 002°37'611.9
2018-Jun-10 01:00N 51°22' E 002°46'612.6
2018-Jun-10 00:30N 51°23' E 002°56'613.1
2018-Jun-10 00:00N 51°24' E 003°06'713.9
2018-Jun-09 23:31N 51°25' E 003°17'713.4
2018-Jun-09 23:00N 51°25' E 003°28'510.8
2018-Jun-09 22:30N 51°26' E 003°37'5 9.2
2018-Jun-09 22:00N 51°24' E 003°43'611.3
2018-Jun-09 21:31N 51°21' E 003°51'510.6
2018-Jun-09 21:01N 51°24' E 003°57'3 6.1
2018-Jun-09 20:30N 51°24' E 004°02'4 8.3
2018-Jun-09 20:00N 51°22' E 004°08'3 6.4
2018-Jun-09 19:30N 51°23' E 004°13'3 6.4
2018-Jun-09 19:01N 51°21' E 004°17'0 0.5
2018-Jun-09 18:31N 51°21' E 004°17'0 0.0
2018-Jun-09 18:01N 51°21' E 004°17'1 2.8
2018-Jun-09 17:30N 51°20' E 004°18'3 5.8
2018-Jun-09 17:00N 51°17' E 004°21'1 2.3
2018-Jun-09 16:30N 51°17' E 004°22'0 0.0
2018-Jun-09 15:58N 51°17' E 004°22'0 0.0
2018-Jun-09 14:55N 51°17' E 004°22'0 0.0
2018-Jun-09 14:28N 51°17' E 004°22'0 0.0
2018-Jun-09 13:58N 51°17' E 004°22'0 0.0
2018-Jun-09 13:28N 51°17' E 004°22'0 0.0
2018-Jun-09 12:55N 51°17' E 004°22'0 0.0
2018-Jun-09 12:28N 51°17' E 004°22'0 0.0
2018-Jun-09 11:58N 51°17' E 004°22'0 0.0
2018-Jun-09 11:28N 51°17' E 004°22'0 0.0
2018-Jun-09 10:58N 51°17' E 004°22'0 0.0
2018-Jun-09 10:28N 51°17' E 004°22'0 0.0
2018-Jun-09 09:58N 51°17' E 004°22'0 0.0
2018-Jun-09 09:28N 51°17' E 004°22'0 0.0
2018-Jun-09 08:58N 51°17' E 004°22'0 0.0
2018-Jun-09 08:28N 51°17' E 004°22'0 0.0
2018-Jun-09 07:58N 51°17' E 004°22'0 0.0
2018-Jun-09 07:28N 51°17' E 004°22'0 0.0
2018-Jun-09 06:55N 51°17' E 004°22'0 0.0
2018-Jun-09 06:22N 51°17' E 004°22'0 0.0
2018-Jun-09 05:58N 51°17' E 004°22'0 0.0
2018-Jun-09 05:28N 51°17' E 004°22'0 0.0
2018-Jun-09 04:58N 51°17' E 004°22'0 0.0
2018-Jun-09 04:28N 51°17' E 004°22'0 0.0
2018-Jun-09 03:58N 51°17' E 004°22'0 0.0
2018-Jun-09 03:28N 51°17' E 004°22'0 0.0
2018-Jun-09 02:55N 51°17' E 004°22'0 0.1
2018-Jun-09 02:28N 51°17' E 004°22'0 0.0
2018-Jun-09 01:55N 51°17' E 004°22'0 0.0
2018-Jun-09 01:28N 51°17' E 004°22'0 0.0
2018-Jun-09 00:55N 51°17' E 004°22'0 0.0
2018-Jun-09 00:28N 51°17' E 004°22'0 0.0
2018-Jun-08 23:58N 51°17' E 004°22'0 0.0
2018-Jun-08 23:28N 51°17' E 004°22'0 0.0
2018-Jun-08 22:58N 51°17' E 004°22'0 0.0
2018-Jun-08 22:25N 51°17' E 004°22'0 0.0
2018-Jun-08 21:58N 51°17' E 004°22'0 0.0
2018-Jun-08 21:28N 51°17' E 004°22'0 0.0
2018-Jun-08 20:52N 51°17' E 004°22'0 0.0
2018-Jun-08 20:28N 51°17' E 004°22'0 0.0
2018-Jun-08 19:58N 51°17' E 004°22'0 0.0
2018-Jun-08 19:25N 51°17' E 004°22'0 0.0
2018-Jun-08 18:58N 51°17' E 004°22'0 0.0
2018-Jun-08 18:28N 51°17' E 004°22'0 0.0
2018-Jun-08 17:58N 51°17' E 004°22'0 0.0
2018-Jun-08 17:25N 51°17' E 004°22'0 0.0
2018-Jun-08 16:58N 51°17' E 004°22'0 0.0
2018-Jun-08 16:22N 51°17' E 004°22'0 0.0
2018-Jun-08 15:58N 51°17' E 004°22'0 0.0
2018-Jun-08 15:28N 51°17' E 004°22'0 0.0
2018-Jun-08 14:58N 51°17' E 004°22'1 1.2
2018-Jun-08 14:30N 51°17' E 004°22'0 0.7
2018-Jun-08 13:56N 51°16' E 004°21'0 0.0
2018-Jun-08 13:29N 51°16' E 004°21'0 0.0
2018-Jun-08 12:59N 51°16' E 004°21'0 0.0
2018-Jun-08 12:29N 51°16' E 004°21'0 0.0
2018-Jun-08 11:59N 51°16' E 004°21'0 0.0
2018-Jun-08 11:29N 51°16' E 004°21'0 0.0
2018-Jun-08 10:59N 51°16' E 004°21'0 0.0
2018-Jun-08 10:29N 51°16' E 004°21'0 0.0
2018-Jun-08 09:56N 51°16' E 004°21'0 0.0
2018-Jun-08 09:29N 51°16' E 004°21'0 0.0
2018-Jun-08 08:59N 51°16' E 004°21'0 0.0
2018-Jun-08 08:29N 51°16' E 004°21'0 0.0
2018-Jun-08 07:59N 51°16' E 004°21'0 0.0
2018-Jun-08 07:29N 51°16' E 004°21'  
Track history (hours):
 
Tides and Currents Weather Stations Pressure Air Temp Water Temp Dewpoint Dewpoint Depression Visibility Wind Speed Wind Dir Waves Ship Positions

Green Mountain

Last reported at 2018-Jun-18 07:07 UTC. Time now 2018-Jun-24 05:27 UTC.
Position N 28°14' W 016°08'.

Length 200 m; draft 11.5 m.

Type: Ship (hazmat cat A). MMSI: 538090454.

Date/timePositionNaut miles runAvg speedWind from/ knotsBaromVisibWave heightAir tempDewpointWater temp
2018-Jun-18 07:07N 28°14' W 016°08'213.6
2018-Jun-18 06:59N 28°15' W 016°06'713.7
2018-Jun-18 06:30N 28°21' W 016°02'612.8
2018-Jun-18 06:00N 28°25' W 015°57'612.7
2018-Jun-18 05:30N 28°30' W 015°52'612.8
2018-Jun-18 05:00N 28°35' W 015°48'613.0
2018-Jun-18 04:30N 28°40' W 015°43'713.4
2018-Jun-18 04:00N 28°47' W 015°40'713.6
2018-Jun-18 03:29N 28°53' W 015°37'713.6
2018-Jun-18 02:58N 28°60' W 015°34'2713.6
2018-Jun-18 01:01N 29°24' W 015°23'613.7
2018-Jun-18 00:33N 29°30' W 015°20'213.7
2018-Jun-18 00:23N 29°32' W 015°20'813.5
2018-Jun-17 23:46N 29°40' W 015°16'513.5
2018-Jun-17 23:26N 29°44' W 015°14'613.4
2018-Jun-17 23:00N 29°50' W 015°12'713.5
2018-Jun-17 22:29N 29°56' W 015°09'813.3
2018-Jun-17 21:55N 30°03' W 015°05'713.3
2018-Jun-17 21:24N 30°09' W 015°02'613.4
2018-Jun-17 20:56N 30°15' W 014°60'613.7
2018-Jun-17 20:30N 30°21' W 014°57'813.7
2018-Jun-17 19:53N 30°29' W 014°54'813.6
2018-Jun-17 19:19N 30°36' W 014°50'37413.4
2018-Jun-16 15:24N 36°23' W 012°04'4713.6
2018-Jun-16 11:57N 37°04' W 011°37'2313.8
2018-Jun-16 10:15N 37°25' W 011°23'413.7
2018-Jun-16 09:59N 37°28' W 011°20'713.7
2018-Jun-16 09:30N 37°34' W 011°16'713.9
2018-Jun-16 09:00N 37°40' W 011°12'713.6
2018-Jun-16 08:30N 37°46' W 011°08'510.6
2018-Jun-16 08:00N 37°51' W 011°05'1312.1
2018-Jun-16 06:57N 38°02' W 010°58'614.6
2018-Jun-16 06:30N 38°07' W 010°54'714.3
2018-Jun-16 06:01N 38°14' W 010°49'714.3
2018-Jun-16 05:30N 38°20' W 010°44'714.2
2018-Jun-16 05:00N 38°26' W 010°40'714.3
2018-Jun-16 04:31N 38°32' W 010°35'714.2
2018-Jun-16 03:59N 38°39' W 010°31'714.2
2018-Jun-16 03:28N 38°45' W 010°27'814.1
2018-Jun-16 02:54N 38°52' W 010°22'513.5
2018-Jun-16 02:30N 38°57' W 010°19'713.9
2018-Jun-16 02:00N 39°03' W 010°14'714.3
2018-Jun-16 01:30N 39°09' W 010°10'714.5
2018-Jun-16 01:00N 39°16' W 010°06'814.4
2018-Jun-16 00:26N 39°23' W 010°01'714.8
2018-Jun-15 23:58N 39°29' W 009°57'714.6
2018-Jun-15 23:30N 39°35' W 009°53'714.4
2018-Jun-15 23:00N 39°41' W 009°48'814.3
2018-Jun-15 22:27N 39°48' W 009°43'714.4
2018-Jun-15 22:00N 39°54' W 009°39'714.2
2018-Jun-15 21:30N 39°60' W 009°34'714.1
2018-Jun-15 21:00N 40°05' W 009°28'814.4
2018-Jun-15 20:29N 40°11' W 009°22'1014.4
2018-Jun-15 19:49N 40°19' W 009°15'5314.2
2018-Jun-15 16:03N 41°08' W 008°45'111.2
2018-Jun-15 15:59N 41°08' W 008°44'3 7.2
2018-Jun-15 15:30N 41°11' W 008°42'1 0.6
2018-Jun-15 14:30N 41°12' W 008°41'0 0.0
2018-Jun-15 13:57N 41°12' W 008°41'0 0.0
2018-Jun-15 13:30N 41°12' W 008°41'0 0.0
2018-Jun-15 12:51N 41°12' W 008°41'0 0.0
2018-Jun-15 12:27N 41°12' W 008°41'0 0.0
2018-Jun-15 12:00N 41°12' W 008°41'0 0.0
2018-Jun-15 11:30N 41°12' W 008°41'0 0.0
2018-Jun-15 09:27N 41°12' W 008°41'0 0.0
2018-Jun-15 08:57N 41°12' W 008°41'0 0.0
2018-Jun-15 08:30N 41°12' W 008°41'0 0.0
2018-Jun-15 08:00N 41°12' W 008°41'0 0.0
2018-Jun-15 07:21N 41°12' W 008°41'0 0.0
2018-Jun-15 07:00N 41°12' W 008°41'0 0.0
2018-Jun-15 06:24N 41°12' W 008°41'0 0.0
2018-Jun-15 05:57N 41°12' W 008°41'0 0.0
2018-Jun-15 05:24N 41°12' W 008°41'0 0.0
2018-Jun-15 04:57N 41°12' W 008°41'0 0.0
2018-Jun-15 04:24N 41°12' W 008°41'0 0.0
2018-Jun-15 03:57N 41°12' W 008°41'0 0.0
2018-Jun-15 03:30N 41°12' W 008°41'0 0.0
2018-Jun-15 02:45N 41°12' W 008°41'0 0.0
2018-Jun-15 02:27N 41°12' W 008°41'0 0.0
2018-Jun-15 01:42N 41°12' W 008°41'0 0.0
2018-Jun-15 01:30N 41°12' W 008°41'0 0.0
2018-Jun-15 00:54N 41°12' W 008°41'0 0.0
2018-Jun-15 00:21N 41°12' W 008°41'0 0.1
2018-Jun-15 00:00N 41°12' W 008°41'0 0.1
2018-Jun-14 23:30N 41°12' W 008°41'0 0.0
2018-Jun-14 22:57N 41°12' W 008°41'0 0.0
2018-Jun-14 22:30N 41°12' W 008°41'0 0.0
2018-Jun-14 22:00N 41°12' W 008°41'0 0.0
2018-Jun-14 21:27N 41°12' W 008°41'0 0.0
2018-Jun-14 21:00N 41°12' W 008°41'0 0.0
2018-Jun-14 20:30N 41°12' W 008°41'0 0.0
2018-Jun-14 19:48N 41°12' W 008°41'0 0.0
2018-Jun-14 19:24N 41°12' W 008°41'0 0.0
2018-Jun-14 18:48N 41°12' W 008°41'0 0.0
2018-Jun-14 18:30N 41°12' W 008°41'0 0.0
2018-Jun-14 18:00N 41°12' W 008°41'0 0.7
2018-Jun-14 17:30N 41°11' W 008°42'2 5.0
2018-Jun-14 17:00N 41°09' W 008°44'1 1.9
2018-Jun-14 16:30N 41°09' W 008°45'1 2.6
2018-Jun-14 15:59N 41°08' W 008°46'2 0.8
2018-Jun-14 13:49N 41°08' W 008°48'1 1.5
2018-Jun-14 13:29N 41°08' W 008°48'1 1.3
2018-Jun-14 12:35N 41°09' W 008°49'0 1.3
2018-Jun-14 12:30N 41°10' W 008°49'1 1.1
2018-Jun-14 12:00N 41°10' W 008°49'1 1.8
2018-Jun-14 11:30N 41°09' W 008°50'213 7.3
2018-Jun-13 06:07N 43°48' W 005°37'615.4
2018-Jun-13 05:45N 43°47' W 005°29'415.3
2018-Jun-13 05:29N 43°47' W 005°23'715.2
2018-Jun-13 05:00N 43°47' W 005°13'815.1
2018-Jun-13 04:29N 43°46' W 005°02'815.3
2018-Jun-13 03:59N 43°46' W 004°51'4915.1
2018-Jun-13 00:44N 43°42' W 003°44'414.8
2018-Jun-13 00:29N 43°41' W 003°39'713.8
2018-Jun-13 00:00N 43°39' W 003°30'713.9
2018-Jun-12 23:30N 43°35' W 003°23'713.6
2018-Jun-12 23:00N 43°31' W 003°15'612.6
2018-Jun-12 22:30N 43°27' W 003°09'5 9.8
2018-Jun-12 22:00N 43°23' W 003°05'2 3.9
2018-Jun-12 21:30N 43°21' W 003°03'0 0.4
2018-Jun-12 20:54N 43°21' W 003°03'0 0.0
2018-Jun-12 18:12N 43°21' W 003°03'0 0.0
2018-Jun-12 17:42N 43°21' W 003°03'0 0.0
2018-Jun-12 17:30N 43°21' W 003°03'0 0.0
2018-Jun-12 16:36N 43°21' W 003°03'0 0.0
2018-Jun-12 16:30N 43°21' W 003°03'0 0.0
2018-Jun-12 15:42N 43°21' W 003°03'0 0.0
2018-Jun-12 15:24N 43°21' W 003°03'0 0.0
2018-Jun-12 15:00N 43°21' W 003°03'0 0.0
2018-Jun-12 14:18N 43°21' W 003°03'0 0.0
2018-Jun-12 11:18N 43°21' W 003°03'0 0.0
2018-Jun-12 09:30N 43°21' W 003°03'0 0.0
2018-Jun-12 08:48N 43°21' W 003°03'0 0.0
2018-Jun-12 08:24N 43°21' W 003°03'0 0.0
2018-Jun-12 07:48N 43°21' W 003°03'0 0.0
2018-Jun-12 07:30N 43°21' W 003°03'0 0.0
2018-Jun-12 07:00N 43°21' W 003°03'0 0.0
2018-Jun-12 05:30N 43°21' W 003°03'0 0.0
2018-Jun-12 04:57N 43°21' W 003°03'0 1.0
2018-Jun-12 04:31N 43°22' W 003°02'4 8.2
2018-Jun-12 04:00N 43°25' W 003°06'4 7.3
2018-Jun-12 03:30N 43°28' W 003°08'510.1
2018-Jun-12 03:00N 43°33' W 003°10'511.0
2018-Jun-12 02:30N 43°38' W 003°13'611.9
2018-Jun-12 02:00N 43°44' W 003°16'612.1
2018-Jun-12 01:30N 43°49' W 003°19'29013.8
2018-Jun-11 04:33N 48°19' W 005°50'13312.9
2018-Jun-10 18:16N 49°48' W 003°19'414.1
2018-Jun-10 18:00N 49°50' W 003°15'713.8
2018-Jun-10 17:28N 49°54' W 003°05'613.5
2018-Jun-10 17:00N 49°57' W 002°56'613.0
2018-Jun-10 16:30N 49°59' W 002°47'3313.6
2018-Jun-10 14:06N 50°08' W 001°58'915.2
2018-Jun-10 13:30N 50°11' W 001°44'815.9
2018-Jun-10 13:00N 50°13' W 001°32'916.6
2018-Jun-10 12:28N 50°16' W 001°19'817.1
2018-Jun-10 12:00N 50°18' W 001°07'917.6
2018-Jun-10 11:30N 50°20' W 000°54'917.3
2018-Jun-10 11:00N 50°23' W 000°41'816.8
2018-Jun-10 10:30N 50°25' W 000°28'916.3
2018-Jun-10 09:59N 50°27' W 000°15'2215.4
2018-Jun-10 08:34N 50°34' E 000°17'114.9
2018-Jun-10 08:31N 50°34' E 000°18'714.7
2018-Jun-10 08:00N 50°37' E 000°29'714.3
2018-Jun-10 07:30N 50°40' E 000°39'714.2
2018-Jun-10 07:01N 50°44' E 000°48'714.1
2018-Jun-10 06:29N 50°49' E 000°58'2015.0
2018-Jun-10 05:08N 51°02' E 001°22'316.2
2018-Jun-10 04:58N 51°03' E 001°26'817.4
2018-Jun-10 04:31N 51°09' E 001°35'816.9
2018-Jun-10 04:01N 51°14' E 001°45'816.5
2018-Jun-10 03:30N 51°21' E 001°54'714.0
2018-Jun-10 03:00N 51°25' E 002°03'714.8
2018-Jun-10 02:31N 51°22' E 002°13'714.6
2018-Jun-10 02:00N 51°22' E 002°25'814.8
2018-Jun-10 01:30N 51°23' E 002°37'611.9
2018-Jun-10 01:00N 51°22' E 002°46'612.6
2018-Jun-10 00:30N 51°23' E 002°56'613.1
2018-Jun-10 00:00N 51°24' E 003°06'713.9
2018-Jun-09 23:31N 51°25' E 003°17'713.4
2018-Jun-09 23:00N 51°25' E 003°28'510.8
2018-Jun-09 22:30N 51°26' E 003°37'5 9.2
2018-Jun-09 22:00N 51°24' E 003°43'611.3
2018-Jun-09 21:31N 51°21' E 003°51'510.6
2018-Jun-09 21:01N 51°24' E 003°57'3 6.1
2018-Jun-09 20:30N 51°24' E 004°02'4 8.3
2018-Jun-09 20:00N 51°22' E 004°08'3 6.4
2018-Jun-09 19:30N 51°23' E 004°13'3 6.4
2018-Jun-09 19:01N 51°21' E 004°17'0 0.5
2018-Jun-09 18:31N 51°21' E 004°17'0 0.0
2018-Jun-09 18:01N 51°21' E 004°17'1 2.8
2018-Jun-09 17:30N 51°20' E 004°18'3 5.8
2018-Jun-09 17:00N 51°17' E 004°21'1 2.3
2018-Jun-09 16:30N 51°17' E 004°22'0 0.0
2018-Jun-09 15:58N 51°17' E 004°22'0 0.0
2018-Jun-09 14:55N 51°17' E 004°22'0 0.0
2018-Jun-09 14:28N 51°17' E 004°22'0 0.0
2018-Jun-09 13:58N 51°17' E 004°22'0 0.0
2018-Jun-09 13:28N 51°17' E 004°22'0 0.0
2018-Jun-09 12:55N 51°17' E 004°22'0 0.0
2018-Jun-09 12:28N 51°17' E 004°22'0 0.0
2018-Jun-09 11:58N 51°17' E 004°22'0 0.0
2018-Jun-09 11:28N 51°17' E 004°22'0 0.0
2018-Jun-09 10:58N 51°17' E 004°22'0 0.0
2018-Jun-09 10:28N 51°17' E 004°22'0 0.0
2018-Jun-09 09:58N 51°17' E 004°22'0 0.0
2018-Jun-09 09:28N 51°17' E 004°22'0 0.0
2018-Jun-09 08:58N 51°17' E 004°22'0 0.0
2018-Jun-09 08:28N 51°17' E 004°22'0 0.0
2018-Jun-09 07:58N 51°17' E 004°22'0 0.0
2018-Jun-09 07:28N 51°17' E 004°22'0 0.0
2018-Jun-09 06:55N 51°17' E 004°22'0 0.0
2018-Jun-09 06:22N 51°17' E 004°22'0 0.0
2018-Jun-09 05:58N 51°17' E 004°22'0 0.0
2018-Jun-09 05:28N 51°17' E 004°22'0 0.0
2018-Jun-09 04:58N 51°17' E 004°22'0 0.0
2018-Jun-09 04:28N 51°17' E 004°22'0 0.0
2018-Jun-09 03:58N 51°17' E 004°22'0 0.0
2018-Jun-09 03:28N 51°17' E 004°22'0 0.0
2018-Jun-09 02:55N 51°17' E 004°22'0 0.1
2018-Jun-09 02:28N 51°17' E 004°22'0 0.0
2018-Jun-09 01:55N 51°17' E 004°22'0 0.0
2018-Jun-09 01:28N 51°17' E 004°22'0 0.0
2018-Jun-09 00:55N 51°17' E 004°22'0 0.0
2018-Jun-09 00:28N 51°17' E 004°22'0 0.0
2018-Jun-08 23:58N 51°17' E 004°22'0 0.0
2018-Jun-08 23:28N 51°17' E 004°22'0 0.0
2018-Jun-08 22:58N 51°17' E 004°22'0 0.0
2018-Jun-08 22:25N 51°17' E 004°22'0 0.0
2018-Jun-08 21:58N 51°17' E 004°22'0 0.0
2018-Jun-08 21:28N 51°17' E 004°22'0 0.0
2018-Jun-08 20:52N 51°17' E 004°22'0 0.0
2018-Jun-08 20:28N 51°17' E 004°22'0 0.0
2018-Jun-08 19:58N 51°17' E 004°22'0 0.0
2018-Jun-08 19:25N 51°17' E 004°22'0 0.0
2018-Jun-08 18:58N 51°17' E 004°22'0 0.0
2018-Jun-08 18:28N 51°17' E 004°22'0 0.0
2018-Jun-08 17:58N 51°17' E 004°22'0 0.0
2018-Jun-08 17:25N 51°17' E 004°22'0 0.0
2018-Jun-08 16:58N 51°17' E 004°22'0 0.0
2018-Jun-08 16:22N 51°17' E 004°22'0 0.0
2018-Jun-08 15:58N 51°17' E 004°22'0 0.0
2018-Jun-08 15:28N 51°17' E 004°22'0 0.0
2018-Jun-08 14:58N 51°17' E 004°22'1 1.2
2018-Jun-08 14:30N 51°17' E 004°22'0 0.7
2018-Jun-08 13:56N 51°16' E 004°21'0 0.0
2018-Jun-08 13:29N 51°16' E 004°21'0 0.0
2018-Jun-08 12:59N 51°16' E 004°21'0 0.0
2018-Jun-08 12:29N 51°16' E 004°21'0 0.0
2018-Jun-08 11:59N 51°16' E 004°21'0 0.0
2018-Jun-08 11:29N 51°16' E 004°21'0 0.0
2018-Jun-08 10:59N 51°16' E 004°21'0 0.0
2018-Jun-08 10:29N 51°16' E 004°21'0 0.0
2018-Jun-08 09:56N 51°16' E 004°21'0 0.0
2018-Jun-08 09:29N 51°16' E 004°21'0 0.0
2018-Jun-08 08:59N 51°16' E 004°21'0 0.0
2018-Jun-08 08:29N 51°16' E 004°21'0 0.0
2018-Jun-08 07:59N 51°16' E 004°21'0 0.0
2018-Jun-08 07:29N 51°16' E 004°21'  

Dump ship's entire track history